Time;durP1;ratioP1;P1;durP2;ratioP2;P2;SDS_P1;SDS_P2;PMS_P1;PMS_P2;Temp;Humidity;BMP_temperature;BMP_pressure;BME280_temperature;BME280_humidity;BME280_pressure;Samples;Min_cycle;Max_cycle;Signal;HPM_P1;HPM_P2
2022/10/10 00:01:33;;;;;;;2.13;1.93;;;12.60;95.40;;;;;;4949693;28;20461;-81
2022/10/10 00:04:01;;;;;;;2.57;2.33;;;12.60;95.20;;;;;;4949683;28;20452;-82
2022/10/10 00:06:27;;;;;;;2.60;1.97;;;12.60;95.30;;;;;;4945206;28;20535;-82
2022/10/10 00:08:58;;;;;;;4.90;2.37;;;12.60;95.10;;;;;;4949318;28;20439;-81
2022/10/10 00:11:25;;;;;;;2.60;2.07;;;12.50;94.90;;;;;;4947543;28;20449;-81
2022/10/10 00:13:52;;;;;;;8.60;2.90;;;12.40;95.10;;;;;;4948204;28;21001;-81
2022/10/10 00:16:20;;;;;;;2.43;2.20;;;12.40;95.00;;;;;;4945432;28;20497;-81
2022/10/10 00:18:47;;;;;;;3.43;2.53;;;12.30;95.30;;;;;;4945771;28;20911;-82
2022/10/10 00:21:14;;;;;;;3.93;2.40;;;12.30;95.40;;;;;;4945507;28;20539;-84
2022/10/10 00:23:40;;;;;;;3.63;2.30;;;12.30;95.20;;;;;;4945502;28;21018;-81
2022/10/10 00:26:07;;;;;;;3.13;2.60;;;12.30;95.40;;;;;;4943916;28;21279;-81
2022/10/10 00:28:37;;;;;;;3.43;2.87;;;12.30;95.50;;;;;;4959823;28;20449;-81
2022/10/10 00:31:05;;;;;;;3.23;2.93;;;12.30;95.70;;;;;;4957248;28;20861;-83
2022/10/10 00:33:32;;;;;;;2.87;2.57;;;12.30;95.40;;;;;;4949160;28;20464;-82
2022/10/10 00:35:59;;;;;;;2.97;2.43;;;12.30;95.50;;;;;;4951122;28;20563;-81
2022/10/10 00:38:25;;;;;;;2.70;2.50;;;12.20;95.50;;;;;;4946705;28;20533;-82
2022/10/10 00:40:54;;;;;;;2.83;2.53;;;12.20;95.70;;;;;;4951780;28;20888;-82
2022/10/10 00:43:23;;;;;;;3.97;2.60;;;12.00;95.90;;;;;;4947884;28;20547;-82
2022/10/10 00:45:50;;;;;;;3.73;2.50;;;11.90;96.30;;;;;;4948585;28;20556;-81
2022/10/10 00:48:19;;;;;;;2.90;2.70;;;11.90;96.40;;;;;;4956917;28;20538;-81
2022/10/10 00:50:52;;;;;;;2.23;2.13;;;11.90;96.50;;;;;;4951583;28;20862;-81
2022/10/10 00:53:23;;;;;;;3.03;2.70;;;11.80;96.70;;;;;;4950321;28;20481;-82
2022/10/10 00:55:51;;;;;;;3.73;3.40;;;11.80;97.00;;;;;;4966163;28;20469;-80
2022/10/10 00:58:18;;;;;;;6.30;2.57;;;11.70;97.10;;;;;;4950900;28;20507;-82
2022/10/10 01:00:45;;;;;;;3.23;2.60;;;11.70;97.30;;;;;;4949755;28;20591;-81
2022/10/10 01:03:12;;;;;;;2.77;2.57;;;11.70;97.20;;;;;;4948207;28;20489;-82
2022/10/10 01:05:40;;;;;;;2.57;1.83;;;11.80;97.20;;;;;;4949151;28;21029;-81
2022/10/10 01:08:08;;;;;;;3.07;2.77;;;11.80;97.20;;;;;;4947529;28;20527;-81
2022/10/10 01:10:43;;;;;;;3.37;2.30;;;11.80;97.40;;;;;;4959875;28;20670;-82
2022/10/10 01:13:46;;;;;;;2.73;2.53;;;11.80;97.50;;;;;;4974728;28;20522;-81
2022/10/10 01:16:22;;;;;;;3.20;2.13;;;11.70;97.50;;;;;;4978416;28;20459;-83
2022/10/10 01:19:08;;;;;;;2.13;1.60;;;11.70;97.80;;;;;;4978910;28;20479;-82
2022/10/10 01:21:53;;;;;;;2.50;2.30;;;11.80;98.20;;;;;;4973475;28;20491;-82
2022/10/10 01:24:41;;;;;;;2.63;2.43;;;11.80;97.60;;;;;;4958207;28;20445;-82
2022/10/10 01:27:23;;;;;;;3.37;2.53;;;11.70;97.60;;;;;;4955368;28;20471;-82
2022/10/10 01:30:04;;;;;;;2.90;2.47;;;11.60;97.80;;;;;;4954178;28;20444;-82
2022/10/10 01:32:55;;;;;;;2.70;2.23;;;11.60;97.80;;;;;;4953153;28;20813;-82
2022/10/10 01:35:36;;;;;;;2.97;2.43;;;11.50;97.80;;;;;;4954413;28;20566;-82
2022/10/10 01:38:21;;;;;;;2.40;2.20;;;11.50;98.00;;;;;;4953630;28;20512;-82
2022/10/10 01:41:09;;;;;;;2.93;2.50;;;11.50;98.10;;;;;;4951628;28;20480;-82
2022/10/10 01:43:38;;;;;;;2.57;2.37;;;11.60;97.90;;;;;;4954119;28;20520;-82
2022/10/10 01:46:10;;;;;;;3.10;2.90;;;11.60;97.80;;;;;;4953930;28;20496;-81
2022/10/10 01:48:38;;;;;;;2.27;2.07;;;11.60;98.00;;;;;;4955787;28;20510;-80
2022/10/10 01:51:29;;;;;;;2.43;2.23;;;11.60;97.90;;;;;;4951785;28;20537;-82
2022/10/10 01:54:20;;;;;;;2.40;2.20;;;11.50;98.00;;;;;;4959718;28;20520;-81
2022/10/10 01:56:58;;;;;;;3.37;2.27;;;11.50;98.10;;;;;;4965295;28;20495;-80
2022/10/10 01:59:37;;;;;;;2.30;2.10;;;11.50;98.10;;;;;;4962149;28;20563;-81
2022/10/10 02:02:29;;;;;;;2.60;2.27;;;11.60;98.00;;;;;;4964058;28;20982;-81
2022/10/10 02:05:33;;;;;;;3.10;2.27;;;11.60;98.00;;;;;;4950609;28;20500;-83
2022/10/10 02:08:32;;;;;;;2.23;2.03;;;11.60;97.90;;;;;;4951113;28;20525;-82
2022/10/10 02:11:02;;;;;;;6.70;3.30;;;11.70;97.90;;;;;;4948331;28;20452;-82
2022/10/10 02:13:36;;;;;;;4.93;2.40;;;11.70;97.60;;;;;;4952360;28;20456;-82
2022/10/10 02:16:07;;;;;;;2.20;2.00;;;11.80;97.50;;;;;;4952737;28;20560;-82
2022/10/10 02:18:35;;;;;;;3.40;2.23;;;11.70;97.60;;;;;;4952483;28;20618;-78
2022/10/10 02:21:04;;;;;;;3.60;2.30;;;11.60;97.60;;;;;;4962696;28;20568;-82
2022/10/10 02:23:33;;;;;;;4.37;2.47;;;11.60;97.80;;;;;;4964263;28;20508;-81
2022/10/10 02:26:00;;;;;;;3.30;1.87;;;11.70;97.70;;;;;;4952623;28;21057;-82
2022/10/10 02:28:40;;;;;;;1.90;1.80;;;11.70;97.70;;;;;;4948329;28;20452;-82
2022/10/10 02:31:13;;;;;;;1.93;1.83;;;11.70;97.90;;;;;;4942600;28;20537;-81
2022/10/10 02:33:55;;;;;;;2.80;2.10;;;11.70;97.90;;;;;;4948097;28;20500;-82
2022/10/10 02:36:23;;;;;;;2.13;1.87;;;11.90;97.70;;;;;;4947293;28;20625;-83
2022/10/10 02:38:52;;;;;;;2.43;2.00;;;11.90;97.40;;;;;;4946653;28;21100;-82
2022/10/10 02:41:21;;;;;;;2.40;2.20;;;11.90;97.30;;;;;;4946225;28;20464;-81
2022/10/10 02:43:49;;;;;;;2.80;2.20;;;11.80;97.30;;;;;;4946887;28;20453;-82
2022/10/10 02:46:16;;;;;;;3.10;1.83;;;11.80;97.30;;;;;;4946736;28;20493;-81
2022/10/10 02:48:43;;;;;;;2.23;2.00;;;11.80;97.40;;;;;;4945769;28;20492;-82
2022/10/10 02:51:11;;;;;;;3.90;3.20;;;11.70;97.70;;;;;;4946418;28;20467;-82
2022/10/10 02:53:38;;;;;;;2.50;2.30;;;11.70;97.90;;;;;;4938021;28;20485;-82
2022/10/10 02:56:05;;;;;;;1.97;1.83;;;11.60;98.00;;;;;;4959293;28;20487;-82
2022/10/10 02:58:31;;;;;;;2.97;1.93;;;11.60;98.20;;;;;;4946719;28;20582;-82
2022/10/10 03:00:58;;;;;;;2.50;2.30;;;11.50;98.40;;;;;;4943292;28;20557;-83
2022/10/10 03:03:25;;;;;;;4.23;2.10;;;11.60;98.50;;;;;;4950086;28;20472;-82
2022/10/10 03:05:51;;;;;;;2.50;1.77;;;11.70;98.10;;;;;;4947777;28;20579;-82
2022/10/10 03:08:18;;;;;;;2.53;2.33;;;11.60;97.90;;;;;;4946995;28;20468;-82
2022/10/10 03:10:56;;;;;;;2.27;2.07;;;11.60;97.90;;;;;;4946128;28;20465;-81
2022/10/10 03:13:23;;;;;;;3.43;2.07;;;11.60;98.00;;;;;;4944783;28;20519;-81
2022/10/10 03:15:50;;;;;;;2.27;2.10;;;11.60;97.90;;;;;;4946306;28;20556;-82
2022/10/10 03:18:17;;;;;;;2.30;2.10;;;11.50;98.10;;;;;;4945295;28;20553;-81
2022/10/10 03:20:45;;;;;;;7.10;2.43;;;11.40;98.50;;;;;;4953589;28;20540;-81
2022/10/10 03:23:12;;;;;;;4.13;2.50;;;11.50;98.50;;;;;;4957756;28;20522;-81
2022/10/10 03:25:40;;;;;;;2.43;2.23;;;11.60;98.40;;;;;;4950701;28;20483;-82
2022/10/10 03:28:07;;;;;;;4.40;2.20;;;11.50;98.40;;;;;;4948072;28;20494;-81
2022/10/10 03:30:35;;;;;;;2.40;2.17;;;11.50;98.60;;;;;;4947654;28;20974;-82
2022/10/10 03:33:02;;;;;;;3.53;2.37;;;11.40;98.70;;;;;;4950822;28;20449;-81
2022/10/10 03:35:28;;;;;;;2.80;2.03;;;11.40;98.80;;;;;;4945231;28;20480;-81
2022/10/10 03:37:56;;;;;;;2.30;1.97;;;11.40;99.00;;;;;;4952778;28;20529;-81
2022/10/10 03:40:22;;;;;;;3.27;2.00;;;11.40;98.90;;;;;;4947718;28;20484;-82
2022/10/10 03:42:49;;;;;;;2.57;2.37;;;11.30;99.00;;;;;;4946459;28;20445;-81
2022/10/10 03:45:16;;;;;;;3.00;2.80;;;11.40;99.00;;;;;;4947214;28;20522;-81
2022/10/10 03:47:43;;;;;;;3.23;2.87;;;11.50;98.80;;;;;;4946002;28;20460;-81
2022/10/10 03:50:10;;;;;;;2.90;2.30;;;11.50;98.80;;;;;;4953381;28;20572;-80
2022/10/10 03:52:37;;;;;;;3.57;2.70;;;11.50;98.80;;;;;;4947781;28;21022;-81
2022/10/10 03:55:04;;;;;;;2.57;2.37;;;11.60;98.70;;;;;;4945891;28;20540;-81
2022/10/10 03:57:31;;;;;;;2.40;2.20;;;11.50;98.70;;;;;;4949758;28;20475;-80
2022/10/10 03:59:57;;;;;;;2.80;2.33;;;11.40;99.00;;;;;;4949442;28;20472;-82
2022/10/10 04:02:24;;;;;;;2.63;2.30;;;11.50;98.80;;;;;;4951496;28;20468;-82
2022/10/10 04:04:50;;;;;;;2.60;2.40;;;11.50;98.70;;;;;;4949456;28;20480;-81
2022/10/10 04:07:17;;;;;;;3.10;2.30;;;11.40;98.60;;;;;;4948169;28;20552;-83
2022/10/10 04:09:44;;;;;;;3.83;2.57;;;11.40;98.80;;;;;;4950698;28;20468;-81
2022/10/10 04:12:10;;;;;;;2.53;2.33;;;11.40;98.80;;;;;;4948554;28;20524;-82
2022/10/10 04:14:37;;;;;;;3.17;2.50;;;11.40;98.80;;;;;;4946181;28;20530;-81
2022/10/10 04:17:03;;;;;;;3.57;2.27;;;11.50;98.80;;;;;;4944717;28;20452;-80
2022/10/10 04:19:30;;;;;;;3.20;2.90;;;11.40;98.80;;;;;;4948241;28;20464;-81
2022/10/10 04:21:57;;;;;;;3.00;2.63;;;11.40;99.10;;;;;;4951098;28;20483;-81
2022/10/10 04:24:23;;;;;;;3.33;2.60;;;11.30;99.20;;;;;;4954749;28;20441;-80
2022/10/10 04:26:50;;;;;;;4.00;3.00;;;11.30;99.40;;;;;;4954386;28;20491;-80
2022/10/10 04:29:17;;;;;;;3.43;2.70;;;11.20;99.50;;;;;;4955657;28;20472;-80
2022/10/10 04:31:43;;;;;;;4.83;2.53;;;11.20;99.90;;;;;;4954696;28;20495;-80
2022/10/10 04:34:10;;;;;;;4.27;2.83;;;11.20;99.80;;;;;;4963312;28;20461;-80
2022/10/10 04:36:36;;;;;;;4.27;2.70;;;11.30;99.70;;;;;;4947129;28;20527;-81
2022/10/10 04:39:03;;;;;;;3.30;3.00;;;11.30;99.80;;;;;;4959234;28;20531;-81
2022/10/10 04:41:30;;;;;;;4.47;3.00;;;11.20;99.90;;;;;;4952134;28;20994;-79
2022/10/10 04:43:56;;;;;;;4.57;2.63;;;11.20;99.90;;;;;;4953204;28;20577;-80
2022/10/10 04:46:23;;;;;;;3.50;2.77;;;11.20;99.90;;;;;;4952419;28;20515;-80
2022/10/10 04:48:50;;;;;;;4.17;2.80;;;11.20;99.90;;;;;;4955161;28;20523;-81
2022/10/10 04:51:16;;;;;;;3.40;2.70;;;11.10;99.90;;;;;;4950736;28;20660;-81
2022/10/10 04:53:43;;;;;;;9.37;7.73;;;11.10;99.90;;;;;;4956364;28;20521;-82
2022/10/10 04:56:15;;;;;;;3.80;3.10;;;11.10;99.90;;;;;;4959691;28;20564;-80
2022/10/10 04:58:41;;;;;;;4.23;3.13;;;11.10;99.90;;;;;;4966287;28;20562;-79
2022/10/10 05:01:08;;;;;;;5.53;2.80;;;11.10;99.90;;;;;;4959240;28;20484;-81
2022/10/10 05:03:34;;;;;;;4.57;3.10;;;11.10;99.90;;;;;;4970847;28;20484;-81
2022/10/10 05:06:01;;;;;;;3.13;2.60;;;11.10;99.90;;;;;;4958730;28;20538;-80
2022/10/10 05:08:28;;;;;;;4.30;3.23;;;11.10;99.90;;;;;;4955706;28;20512;-80
2022/10/10 05:10:54;;;;;;;3.50;3.00;;;11.20;99.90;;;;;;4959230;28;20445;-81
2022/10/10 05:13:21;;;;;;;4.17;2.70;;;11.10;99.90;;;;;;4962913;28;20457;-82
2022/10/10 05:15:51;;;;;;;5.80;3.30;;;11.10;99.90;;;;;;4961098;28;20987;-81
2022/10/10 05:18:18;;;;;;;5.23;2.80;;;11.20;99.90;;;;;;4965196;28;20511;-81
2022/10/10 05:20:48;;;;;;;4.37;3.97;;;11.30;99.90;;;;;;4964332;28;20483;-82
2022/10/10 05:23:15;;;;;;;3.80;3.00;;;11.40;99.90;;;;;;4964943;28;20449;-81
2022/10/10 05:25:43;;;;;;;3.17;2.87;;;11.30;99.90;;;;;;4959709;28;20487;-81
2022/10/10 05:28:11;;;;;;;5.20;3.57;;;11.40;99.90;;;;;;4955149;28;20528;-82
2022/10/10 05:30:37;;;;;;;4.87;2.77;;;11.30;99.90;;;;;;4953170;28;21171;-82
2022/10/10 05:33:04;;;;;;;6.53;3.40;;;11.30;99.90;;;;;;4962357;28;20500;-83
2022/10/10 05:35:31;;;;;;;8.07;3.60;;;11.20;99.90;;;;;;4950768;28;20507;-81
2022/10/10 05:37:57;;;;;;;4.43;2.73;;;11.20;99.90;;;;;;4951661;28;20457;-84
2022/10/10 05:40:24;;;;;;;7.03;3.10;;;11.20;99.90;;;;;;4953326;28;20534;-82
2022/10/10 05:42:51;;;;;;;6.30;3.80;;;11.20;99.90;;;;;;4953007;28;20784;-82
2022/10/10 05:45:18;;;;;;;3.70;3.07;;;11.10;99.90;;;;;;4951722;28;20484;-81
2022/10/10 05:47:45;;;;;;;2.97;2.77;;;11.10;99.90;;;;;;4962925;28;20518;-81
2022/10/10 05:50:26;;;;;;;5.20;2.97;;;11.10;99.90;;;;;;4968130;28;20516;-81
2022/10/10 05:52:52;;;;;;;5.90;3.10;;;11.10;99.90;;;;;;4970104;28;20475;-81
2022/10/10 05:55:19;;;;;;;5.47;3.30;;;11.10;99.90;;;;;;4958844;28;20557;-82
2022/10/10 05:57:46;;;;;;;8.33;3.63;;;11.10;99.90;;;;;;4957160;28;20498;-83
2022/10/10 06:00:13;;;;;;;3.07;2.73;;;11.00;99.90;;;;;;4979380;28;20468;-83
2022/10/10 06:02:39;;;;;;;5.33;3.07;;;11.10;99.90;;;;;;4977791;28;20465;-82
2022/10/10 06:05:07;;;;;;;5.43;3.50;;;11.20;99.90;;;;;;4976945;28;20477;-81
2022/10/10 06:07:34;;;;;;;5.33;2.97;;;11.30;99.90;;;;;;4962438;28;20484;-83
2022/10/10 06:10:21;;;;;;;5.40;3.70;;;11.20;99.90;;;;;;4957001;28;20476;-81
2022/10/10 06:12:47;;;;;;;3.73;3.17;;;11.20;99.90;;;;;;4955153;28;20469;-81
2022/10/10 06:15:14;;;;;;;3.93;3.33;;;11.20;99.90;;;;;;4955403;28;20480;-82
2022/10/10 06:17:41;;;;;;;6.57;3.40;;;11.20;99.90;;;;;;4953531;28;20503;-81
2022/10/10 06:20:08;;;;;;;4.10;3.60;;;11.10;99.90;;;;;;4953612;28;20519;-82
2022/10/10 06:22:35;;;;;;;6.10;3.57;;;11.20;99.90;;;;;;4954135;28;20536;-81
2022/10/10 06:25:02;;;;;;;3.43;3.13;;;11.10;99.90;;;;;;4956170;28;20540;-81
2022/10/10 06:27:28;;;;;;;4.33;3.50;;;11.20;99.90;;;;;;4951658;28;20468;-80
2022/10/10 06:29:55;;;;;;;5.17;3.43;;;11.30;99.90;;;;;;4948862;28;20544;-81
2022/10/10 06:32:21;;;;;;;13.77;4.20;;;11.30;99.90;;;;;;4949928;28;20519;-81
2022/10/10 06:34:48;;;;;;;6.13;3.37;;;11.20;99.90;;;;;;4965350;28;20622;-80
2022/10/10 06:37:15;;;;;;;4.43;3.87;;;11.40;99.90;;;;;;4968293;28;20468;-82
2022/10/10 06:39:41;;;;;;;5.87;4.10;;;11.40;99.90;;;;;;4975173;28;20468;-82
2022/10/10 06:42:08;;;;;;;4.43;3.60;;;11.50;99.90;;;;;;4974240;28;20492;-82
2022/10/10 06:44:35;;;;;;;4.13;3.30;;;11.60;99.90;;;;;;4958208;28;20461;-82
2022/10/10 06:47:01;;;;;;;5.93;3.40;;;11.60;99.90;;;;;;4958954;28;20488;-82
2022/10/10 06:49:28;;;;;;;6.07;3.13;;;11.50;99.90;;;;;;4958090;28;20879;-82
2022/10/10 06:51:55;;;;;;;4.90;3.50;;;11.70;99.90;;;;;;4956582;28;20463;-81
2022/10/10 06:54:21;;;;;;;9.13;3.40;;;11.80;99.90;;;;;;4959932;28;20727;-82
2022/10/10 06:56:48;;;;;;;3.47;3.17;;;11.60;99.90;;;;;;4958763;28;20862;-81
2022/10/10 06:59:15;;;;;;;10.77;3.80;;;11.90;99.90;;;;;;4956539;28;20512;-81
2022/10/10 07:01:41;;;;;;;5.80;3.50;;;12.10;99.90;;;;;;4954315;28;20476;-81
2022/10/10 07:04:10;;;;;;;6.10;4.27;;;12.20;99.90;;;;;;4954984;28;21335;-83
2022/10/10 07:06:37;;;;;;;3.90;3.50;;;13.10;99.90;;;;;;4952863;28;20547;-83
2022/10/10 07:09:03;;;;;;;4.57;3.80;;;15.10;98.20;;;;;;4956828;28;20487;-82
2022/10/10 07:11:31;;;;;;;3.30;3.00;;;17.20;92.60;;;;;;4958064;28;20461;-83
2022/10/10 07:13:57;;;;;;;7.57;4.37;;;18.40;89.40;;;;;;4953981;28;20486;-84
2022/10/10 07:16:24;;;;;;;3.73;3.00;;;19.00;84.60;;;;;;4947688;28;20531;-80
2022/10/10 07:18:51;;;;;;;4.87;3.40;;;19.50;80.40;;;;;;4952036;28;20460;-84
2022/10/10 07:21:18;;;;;;;7.00;3.40;;;19.50;78.80;;;;;;4962301;28;20516;-81
2022/10/10 07:23:47;;;;;;;3.10;2.60;;;19.70;79.50;;;;;;5083157;23;20530;-82
2022/10/10 07:26:20;;;;;;;4.70;3.23;;;19.60;77.60;;;;;;5006643;28;20534;-81
2022/10/10 07:28:48;;;;;;;4.13;3.73;;;19.30;79.80;;;;;;5028023;28;20450;-81
2022/10/10 07:31:15;;;;;;;4.13;3.03;;;19.80;76.10;;;;;;5027024;28;20449;-81
2022/10/10 07:33:47;;;;;;;4.40;3.37;;;19.10;77.70;;;;;;5011303;28;20442;-82
2022/10/10 07:36:16;;;;;;;4.17;3.50;;;17.50;82.00;;;;;;5020231;28;20469;-80
2022/10/10 07:38:43;;;;;;;2.63;2.43;;;16.00;89.40;;;;;;5006058;28;20451;-81
2022/10/10 07:41:12;;;;;;;5.70;4.20;;;15.20;92.20;;;;;;5000417;28;20538;-81
2022/10/10 07:43:39;;;;;;;5.40;3.70;;;14.80;93.80;;;;;;4982265;28;20493;-82
2022/10/10 07:46:17;;;;;;;4.53;3.60;;;15.10;94.70;;;;;;5001407;28;20478;-83
2022/10/10 07:48:44;;;;;;;3.50;3.20;;;15.70;94.00;;;;;;5004565;28;20532;-82
2022/10/10 07:51:11;;;;;;;4.90;4.20;;;16.00;92.90;;;;;;5006720;28;20530;-81
2022/10/10 07:53:39;;;;;;;4.43;4.03;;;15.50;92.80;;;;;;5001975;28;20462;-83
2022/10/10 07:56:07;;;;;;;3.93;3.07;;;15.10;94.00;;;;;;4991618;28;20470;-82
2022/10/10 07:58:34;;;;;;;6.57;4.83;;;14.60;94.60;;;;;;5008944;28;20446;-81
2022/10/10 08:01:03;;;;;;;6.43;3.90;;;14.40;95.50;;;;;;4982018;28;20517;-82
2022/10/10 08:03:30;;;;;;;3.53;3.23;;;14.30;96.00;;;;;;4996374;28;20565;-82
2022/10/10 08:05:57;;;;;;;5.30;3.60;;;14.50;96.20;;;;;;4999602;28;20470;-82
2022/10/10 08:08:24;;;;;;;5.50;3.53;;;14.20;96.30;;;;;;4996460;28;20572;-82
2022/10/10 08:10:50;;;;;;;7.33;3.90;;;14.00;97.00;;;;;;4996765;28;20506;-82
2022/10/10 08:13:17;;;;;;;6.00;3.77;;;14.10;97.40;;;;;;4997009;28;20489;-82
2022/10/10 08:15:43;;;;;;;5.10;4.60;;;14.20;97.20;;;;;;4996508;28;20572;-82
2022/10/10 08:18:10;;;;;;;4.03;3.63;;;14.40;97.00;;;;;;4993968;28;20475;-81
2022/10/10 08:20:36;;;;;;;5.27;3.90;;;14.70;96.90;;;;;;4996056;28;20514;-82
2022/10/10 08:23:03;;;;;;;4.43;4.03;;;14.60;96.60;;;;;;4995494;28;21034;-82
2022/10/10 08:25:30;;;;;;;6.00;4.07;;;14.80;96.80;;;;;;4994252;28;20562;-81
2022/10/10 08:27:56;;;;;;;6.27;4.07;;;14.90;96.70;;;;;;4992048;28;21794;-81
2022/10/10 08:30:23;;;;;;;4.80;3.53;;;15.00;96.60;;;;;;4976494;28;20589;-82
2022/10/10 08:32:49;;;;;;;4.00;3.60;;;15.00;96.60;;;;;;4994316;28;20537;-80
2022/10/10 08:35:16;;;;;;;4.27;3.80;;;15.00;96.60;;;;;;4993491;28;20473;-80
2022/10/10 08:37:43;;;;;;;4.20;3.80;;;15.10;96.70;;;;;;4992145;28;20446;-79
2022/10/10 08:40:14;;;;;;;4.70;3.83;;;15.10;96.90;;;;;;4993972;28;20493;-81
2022/10/10 08:42:48;;;;;;;6.70;3.73;;;15.10;97.00;;;;;;4985358;28;20466;-81
2022/10/10 08:45:28;;;;;;;5.10;3.50;;;15.10;97.10;;;;;;4982825;28;20521;-82
2022/10/10 08:48:02;;;;;;;4.30;3.63;;;15.10;97.30;;;;;;4998670;28;20480;-82
2022/10/10 08:50:45;;;;;;;4.67;3.33;;;15.20;97.20;;;;;;4997270;28;20481;-82
2022/10/10 08:53:30;;;;;;;3.87;3.43;;;15.20;97.40;;;;;;4995402;28;20470;-82
2022/10/10 08:55:58;;;;;;;5.30;4.00;;;15.20;97.60;;;;;;4977716;28;20514;-82
2022/10/10 08:58:46;;;;;;;4.43;3.70;;;15.30;97.70;;;;;;4993851;28;20546;-81
2022/10/10 09:01:19;;;;;;;3.87;3.20;;;15.50;97.40;;;;;;4994851;28;21311;-82
2022/10/10 09:03:49;;;;;;;4.07;3.40;;;15.50;97.60;;;;;;4993406;28;20441;-81
2022/10/10 09:06:22;;;;;;;7.70;4.00;;;15.60;97.50;;;;;;4977425;28;20498;-81
2022/10/10 09:09:04;;;;;;;4.90;4.00;;;15.60;97.50;;;;;;4992573;28;21650;-81
2022/10/10 09:11:57;;;;;;;4.00;3.70;;;15.60;97.50;;;;;;4976249;28;20508;-81
2022/10/10 09:14:50;;;;;;;6.17;3.13;;;15.80;97.70;;;;;;5003051;28;20461;-83
2022/10/10 09:17:35;;;;;;;3.73;3.30;;;15.90;97.60;;;;;;4997844;28;20565;-83
2022/10/10 09:20:09;;;;;;;4.27;3.40;;;15.80;97.70;;;;;;5008271;28;20430;-80
2022/10/10 09:23:03;;;;;;;3.47;3.17;;;15.90;97.70;;;;;;5003802;28;20477;-82
2022/10/10 09:25:44;;;;;;;4.33;3.87;;;16.00;97.40;;;;;;5001618;28;21179;-81
2022/10/10 09:28:18;;;;;;;3.63;3.23;;;15.90;97.70;;;;;;4977995;28;20463;-80
2022/10/10 09:30:51;;;;;;;5.43;3.50;;;16.20;97.80;;;;;;4993993;28;20484;-81
2022/10/10 09:33:43;;;;;;;6.00;3.50;;;16.30;97.30;;;;;;4978310;28;20443;-80
2022/10/10 09:36:16;;;;;;;4.00;3.53;;;16.90;97.20;;;;;;4977116;28;20552;-81
2022/10/10 09:38:51;;;;;;;4.20;3.80;;;18.60;94.40;;;;;;4995828;28;20458;-81
2022/10/10 09:41:33;;;;;;;5.13;3.33;;;19.80;91.00;;;;;;4995971;28;20501;-82
2022/10/10 09:44:06;;;;;;;5.80;3.17;;;21.00;87.40;;;;;;4979755;28;20470;-82
2022/10/10 09:46:37;;;;;;;7.53;3.83;;;21.80;83.20;;;;;;4984680;28;20478;-84
2022/10/10 09:49:06;;;;;;;3.47;2.70;;;22.40;80.00;;;;;;4980264;28;20438;-82
2022/10/10 09:51:33;;;;;;;4.70;3.87;;;22.60;77.70;;;;;;4997516;28;20512;-82
2022/10/10 09:53:59;;;;;;;5.90;3.77;;;21.80;80.20;;;;;;4998171;28;20454;-82
2022/10/10 09:56:36;;;;;;;4.87;3.50;;;20.90;83.80;;;;;;4992767;28;20510;-82
2022/10/10 09:59:03;;;;;;;3.47;3.17;;;20.20;86.70;;;;;;4992079;28;20491;-82
2022/10/10 10:01:33;;;;;;;3.77;3.20;;;19.70;89.60;;;;;;4992634;28;20548;-82
2022/10/10 10:04:17;;;;;;;3.70;3.40;;;19.60;90.40;;;;;;4994923;28;20553;-82
2022/10/10 10:07:16;;;;;;;5.07;3.40;;;19.60;90.60;;;;;;4997273;28;20472;-82
2022/10/10 10:09:51;;;;;;;5.23;4.27;;;19.70;90.50;;;;;;5108505;23;20493;-81
2022/10/10 10:12:26;;;;;;;4.60;3.50;;;19.60;90.50;;;;;;5030683;28;20901;-83
2022/10/10 10:14:59;;;;;;;3.50;3.20;;;19.60;90.80;;;;;;5028827;28;20477;-81
2022/10/10 10:17:27;;;;;;;5.23;3.50;;;19.60;90.80;;;;;;5031798;28;20700;-82
2022/10/10 10:19:54;;;;;;;4.67;3.60;;;19.50;90.90;;;;;;5035276;28;20504;-83
2022/10/10 10:22:38;;;;;;;5.53;3.77;;;19.30;91.00;;;;;;5035903;28;20481;-82
2022/10/10 10:25:30;;;;;;;5.13;3.30;;;19.30;91.20;;;;;;5011823;28;20500;-82
2022/10/10 10:28:20;;;;;;;4.70;3.27;;;19.30;91.40;;;;;;5013136;28;20858;-83
2022/10/10 10:30:47;;;;;;;4.73;3.70;;;19.20;91.50;;;;;;5007316;28;20461;-82
2022/10/10 10:33:31;;;;;;;4.47;3.43;;;19.20;91.80;;;;;;5005548;28;20504;-81
2022/10/10 10:36:26;;;;;;;4.53;3.70;;;19.30;91.40;;;;;;5006486;28;20481;-81
2022/10/10 10:39:31;;;;;;;4.73;3.13;;;19.40;91.40;;;;;;5006088;28;20515;-82
2022/10/10 10:42:35;;;;;;;4.37;3.10;;;19.40;91.20;;;;;;4992411;28;21062;-82
2022/10/10 10:45:35;;;;;;;6.60;3.67;;;19.30;91.00;;;;;;5004195;28;20508;-79
2022/10/10 10:48:27;;;;;;;4.37;3.40;;;19.40;91.00;;;;;;4984820;28;20438;-80
2022/10/10 10:51:00;;;;;;;4.23;3.50;;;19.30;91.20;;;;;;5005204;28;20478;-81
2022/10/10 10:53:59;;;;;;;3.83;3.20;;;19.40;91.20;;;;;;5009075;28;20438;-82
2022/10/10 10:56:44;;;;;;;6.40;3.20;;;19.50;90.60;;;;;;5004384;28;20470;-83
2022/10/10 10:59:29;;;;;;;5.27;3.57;;;19.50;91.00;;;;;;5002371;28;20518;-83
2022/10/10 11:02:09;;;;;;;6.40;3.27;;;19.60;90.90;;;;;;5012435;28;20581;-83
2022/10/10 11:04:50;;;;;;;6.30;3.33;;;19.50;90.70;;;;;;5009785;28;20462;-82
2022/10/10 11:08:02;;;;;;;6.03;3.10;;;19.90;90.40;;;;;;5002037;28;20444;-82
2022/10/10 11:10:48;;;;;;;6.23;3.33;;;19.80;90.20;;;;;;4997416;28;20509;-83
2022/10/10 11:13:38;;;;;;;11.43;4.10;;;19.90;90.30;;;;;;5003169;28;20473;-84
2022/10/10 11:16:31;;;;;;;4.43;3.03;;;20.00;89.00;;;;;;5006059;28;22196;-82
2022/10/10 11:19:32;;;;;;;5.27;3.57;;;20.20;88.10;;;;;;5011165;28;21261;-82
2022/10/10 11:22:07;;;;;;;4.07;3.13;;;20.40;87.50;;;;;;5010357;28;20486;-80
2022/10/10 11:24:59;;;;;;;3.57;2.77;;;20.50;87.00;;;;;;5015494;28;20445;-81
2022/10/10 11:27:33;;;;;;;4.60;2.90;;;20.50;85.40;;;;;;5006054;28;20453;-82
2022/10/10 11:30:11;;;;;;;4.60;2.53;;;20.50;86.00;;;;;;5007285;28;20466;-83
2022/10/10 11:32:52;;;;;;;8.17;3.00;;;20.50;85.20;;;;;;5003928;28;21211;-82
2022/10/10 11:35:29;;;;;;;3.53;2.47;;;20.70;84.10;;;;;;5007598;28;20480;-82
2022/10/10 11:38:48;;;;;;;5.17;2.10;;;21.00;81.70;;;;;;5002381;28;20516;-83
2022/10/10 11:41:24;;;;;;;3.50;2.43;;;20.50;82.20;;;;;;4956757;28;20488;-81
2022/10/10 11:44:04;;;;;;;6.87;3.97;;;20.40;83.20;;;;;;5004800;28;20444;-82
2022/10/10 11:46:39;;;;;;;5.33;2.90;;;20.30;84.40;;;;;;5006768;28;20503;-83
2022/10/10 11:49:23;;;;;;;6.33;2.70;;;20.80;82.70;;;;;;5005713;28;20453;-81
2022/10/10 11:52:14;;;;;;;8.97;3.03;;;21.20;79.60;;;;;;4998819;28;20521;-82
2022/10/10 11:55:09;;;;;;;4.63;2.70;;;21.30;78.50;;;;;;4997125;28;20466;-82
2022/10/10 11:57:44;;;;;;;6.07;2.50;;;21.40;78.10;;;;;;4995192;28;20454;-81
2022/10/10 12:00:16;;;;;;;9.50;2.43;;;21.30;77.20;;;;;;4999297;28;20923;-81
2022/10/10 12:02:45;;;;;;;5.70;2.20;;;21.00;77.40;;;;;;4999492;28;20513;-83
2022/10/10 12:05:22;;;;;;;6.67;2.30;;;21.20;77.70;;;;;;4997874;28;20505;-82
2022/10/10 12:08:01;;;;;;;2.40;2.00;;;20.90;78.50;;;;;;4997954;28;20556;-83
2022/10/10 12:10:41;;;;;;;6.13;2.43;;;21.10;78.20;;;;;;4999490;28;20458;-83
2022/10/10 12:13:45;;;;;;;5.10;2.60;;;21.10;77.60;;;;;;5003689;28;20488;-81
2022/10/10 12:16:19;;;;;;;8.37;2.53;;;20.80;78.30;;;;;;4999038;28;20481;-84
2022/10/10 12:18:54;;;;;;;4.77;2.10;;;20.60;79.30;;;;;;4998439;28;20460;-83
2022/10/10 12:21:24;;;;;;;6.27;2.73;;;20.90;78.80;;;;;;4997585;28;20453;-82
2022/10/10 12:24:00;;;;;;;8.20;2.30;;;21.30;77.10;;;;;;4998836;28;20485;-82
2022/10/10 12:26:55;;;;;;;8.43;2.07;;;21.50;75.40;;;;;;5000268;28;20502;-81
2022/10/10 12:29:42;;;;;;;3.63;2.20;;;21.20;77.10;;;;;;5004077;28;20481;-82
2022/10/10 12:32:14;;;;;;;6.37;1.87;;;20.80;77.60;;;;;;5012566;28;20482;-84
2022/10/10 12:34:43;;;;;;;6.10;2.37;;;20.80;78.60;;;;;;5014291;28;20466;-81
2022/10/10 12:37:25;;;;;;;8.63;2.27;;;21.40;76.10;;;;;;5013969;28;20508;-81
2022/10/10 12:40:04;;;;;;;6.73;2.70;;;21.20;75.50;;;;;;5013438;28;20473;-82
2022/10/10 12:42:58;;;;;;;10.20;2.93;;;20.90;77.70;;;;;;5012885;28;20505;-83
2022/10/10 12:45:27;;;;;;;7.83;3.10;;;20.80;78.10;;;;;;5011318;28;20466;-82
2022/10/10 12:47:59;;;;;;;5.90;2.60;;;20.80;78.40;;;;;;5010277;28;20533;-82
2022/10/10 12:50:37;;;;;;;4.70;2.47;;;21.70;75.80;;;;;;5015040;28;20453;-83
2022/10/10 12:53:11;;;;;;;4.30;2.63;;;22.00;72.70;;;;;;5017165;28;20450;-83
2022/10/10 12:55:45;;;;;;;4.83;2.33;;;22.00;72.60;;;;;;5013375;28;20487;-82
2022/10/10 12:58:39;;;;;;;6.93;2.37;;;22.00;72.30;;;;;;5007003;28;20528;-83
2022/10/10 13:01:25;;;;;;;3.57;2.13;;;22.10;71.40;;;;;;5009381;28;20882;-84
2022/10/10 13:03:53;;;;;;;4.23;2.23;;;22.20;71.00;;;;;;5016759;28;20470;-82
2022/10/10 13:06:42;;;;;;;8.90;2.60;;;22.10;71.70;;;;;;5017548;28;20911;-81
2022/10/10 13:09:21;;;;;;;7.70;2.63;;;22.10;71.30;;;;;;5001248;28;20470;-81
2022/10/10 13:12:03;;;;;;;7.33;2.67;;;22.10;72.20;;;;;;5004440;28;20451;-82
2022/10/10 13:14:42;;;;;;;2.80;2.20;;;22.50;71.20;;;;;;5035024;28;20438;-83
2022/10/10 13:17:35;;;;;;;3.87;2.53;;;22.80;69.30;;;;;;5029568;28;20438;-82